• Join FlightAware (Why Join?)
  • Login
  • US Flag 
12:55AM EDT


 

Airport Tracker/Info


-or-


 

Live Flight TrackerFlight Track Log ✈ SWA706 ✈ 18-May-2013 ✈ KHOU - KABQ

Flight Track Log - Related Links

Times and Time Zones

All times are in EDT time to prevent confusion due to time zone crossing. See the SWA706 flight status page for this flight to view local times or setup timezone preferences in your user account.

Time Position Orientation Groundspeed Altitude Reporting Facility
EDT Latitude Longitude Course Direction KTS MPH feet Rate Location/Type
12:30PM 29.6289 -95.2633 291° West 145 167 900  Level Houston Center
12:31PM 29.5964 -95.2986 223° Southwest 233 268 2,900 2,940 Climbing Houston Center
12:32PM 29.5792 -95.3361 242° Southwest 223 257 5,200 3,120 Climbing Houston Center
12:32PM 29.5644 -95.3625 237° Southwest 253 291 6,100 2,460 Climbing Houston Center
12:33PM 29.5528 -95.4125 255° West 273 314 7,800 2,760 Climbing Houston Center
12:34PM 29.5939 -95.5022 298° West 316 364 10,700 2,340 Climbing Houston Center
12:35PM 29.6456 -95.6097 299° West 381 438 12,600 2,520 Climbing Houston Center
12:36PM 29.8907 -95.9552 291° West  Level FlightAware Approximate
12:36PM 29.7008 -95.7214 300° West 402 463 16,000  Level Houston Center
12:37PM 29.7572 -95.8386 299° West 415 478 18,900 2,580 Climbing Houston Center
12:38PM 29.8139 -95.9564 299° West 420 483 21,400 1,980 Climbing Houston Center
12:39PM 29.8861 -96.1036 300° West 437 503 23,000 1,200 Climbing Houston Center
12:40PM 29.9250 -96.2328 289° West 431 496 24,000 1,560 Climbing Houston Center
12:41PM 29.9628 -96.3667 288° West 439 505 26,300 2,400 Climbing Houston Center
12:42PM 30.0011 -96.4989 289° West 439 505 29,000 2,340 Climbing Houston Center
12:43PM 30.0361 -96.6256 288° West 424 488 31,200 1,800 Climbing Houston Center
12:44PM 30.0728 -96.7522 289° West 417 480 32,800 1,680 Climbing Houston Center
12:45PM 30.1144 -96.8967 288° West 415 478 34,700 1,560 Climbing Houston Center
12:46PM 30.1497 -97.0297 287° West 422 486 36,100 1,380 Climbing Houston Center
12:47PM 30.1867 -97.1597 288° West 422 486 37,600 900 Climbing Houston Center
12:48PM 30.2219 -97.2900 287° West 419 482 38,000 180 Climbing Houston Center
12:49PM 30.2583 -97.4181 288° West 415 478 38,000  Level Houston Center
12:50PM 30.2928 -97.5464 287° West 413 475 38,000  Level Houston Center
12:51PM 30.3392 -97.6922 290° West 409 471 38,000  Level Houston Center
12:52PM 30.3975 -97.8125 299° West 419 482 38,000  Level Houston Center
12:53PM 30.4531 -97.9314 298° West 416 479 38,000  Level Houston Center
12:54PM 30.5094 -98.0503 299° West 416 479 38,000  Level Houston Center
12:55PM 30.5639 -98.1692 298° West 412 474 38,000  Level Houston Center
12:56PM 30.6206 -98.2875 299° West 413 475 38,000  Level Houston Center
12:57PM 30.6747 -98.4050 298° West 411 473 38,000  Level Houston Center
12:58PM 30.7303 -98.5222 299° West 409 471 38,000  Level Houston Center
12:59PM 30.7844 -98.6411 298° West 412 474 38,000 480 Level Houston Center
01:01PM 30.8497 -98.7808 299° West 415 478 39,100 960 Climbing Houston Center
01:02PM 30.9047 -98.8997 298° West 414 476 40,000 420 Climbing Houston Center
01:03PM 30.9592 -99.0186 298° West 413 475 40,000  Level Houston Center
01:04PM 31.0128 -99.1364 298° West 409 471 40,000  Level Houston Center
01:05PM 31.0692 -99.2603 298° West 410 472 40,000  Level Houston Center
01:06PM 31.1225 -99.3775 298° West 411 473 40,000  Level Houston Center
01:07PM 31.1744 -99.4914 298° West 400 460 40,000  Level Houston Center
01:08PM 31.2239 -99.6022 298° West 388 447 40,000  Level Houston Center
01:09PM 31.2772 -99.7189 298° West 402 463 40,000  Level Houston Center
01:10PM 31.3278 -99.8319 298° West 394 453 40,000  Level Houston Center
01:11PM 31.3886 -99.9675 298° West 393 452 40,000  Level Houston Center
01:12PM 31.4406 -100.0833 298° West 402 463 40,000  Level Houston Center
01:13PM 31.4925 -100.2003 298° West 405 466 40,000  Level Houston Center
01:14PM 31.5450 -100.3167 298° West 407 468 40,000  Level Houston Center
01:15PM 31.5983 -100.4450 296° West 400 460 40,000  Level Fort Worth Center
01:16PM 31.6478 -100.5614 297° West 400 460 40,000  Level Fort Worth Center
01:17PM 31.6972 -100.6656 299° West 400 460 40,000  Level Fort Worth Center
01:18PM 31.7486 -100.7822 297° West 400 460 40,000  Level Fort Worth Center
01:19PM 31.8017 -100.9014 298° West 400 460 40,000  Level Fort Worth Center
01:20PM 31.8525 -101.0208 297° West 400 460 40,000  Level Fort Worth Center
01:21PM 31.9075 -101.1428 298° West 411 473 40,000  Level Fort Worth Center
01:22PM 31.9581 -101.2600 297° West 411 473 40,000  Level Fort Worth Center
01:23PM 32.0086 -101.3797 296° West 411 473 40,000  Level Fort Worth Center
01:24PM 32.0611 -101.4997 297° West 411 473 40,000  Level Fort Worth Center
01:25PM 32.1114 -101.6219 296° West 411 473 40,000  Level Fort Worth Center
01:26PM 32.1575 -101.7394 295° West 411 473 40,000  Level Fort Worth Center
01:27PM 32.2097 -101.8572 298° West 405 466 40,000  Level Fort Worth Center
01:28PM 32.2597 -101.9778 296° West 405 466 40,000  Level Fort Worth Center
01:29PM 32.3097 -102.0958 297° West 405 466 40,000  Level Fort Worth Center
01:30PM 32.3575 -102.2114 296° West 405 466 40,000  Level Fort Worth Center
01:31PM 32.4131 -102.3372 298° West 412 474 40,000  Level Fort Worth Center
01:32PM 32.4628 -102.4556 296° West 417 480 40,000  Level Fort Worth Center
01:33PM 32.5153 -102.5967 294° West 412 474 40,000  Level Fort Worth Center
01:34PM 32.5669 -102.7128 298° West 412 474 40,000  Level Fort Worth Center
01:35PM 32.6161 -102.8317 296° West 412 474 40,000  Level Fort Worth Center
01:36PM 32.6653 -102.9481 297° West 407 468 40,000  Level Fort Worth Center
01:37PM 32.7122 -103.0622 296° West 401 461 40,000  Level Fort Worth Center
01:38PM 32.7653 -103.1839 297° West 401 461 40,000  Level Fort Worth Center
01:40PM 32.8653 -103.4444 295° West 406 467 40,000  Level Albuquerque Center
01:41PM 32.9256 -103.5922 296° West 413 475 40,000  Level Albuquerque Center
01:42PM 32.9781 -103.7211 296° West 415 478 40,000  Level Albuquerque Center
01:43PM 33.0333 -103.8450 298° West 423 487 40,000  Level Albuquerque Center
01:44PM 33.0833 -103.9803 294° West 417 480 40,000  Level Albuquerque Center
01:45PM 33.1353 -104.1033 297° West 418 481 40,000  Level Albuquerque Center
01:46PM 33.1864 -104.2372 295° West 414 476 40,000  Level Albuquerque Center
01:47PM 33.2261 -104.3372 295° West 414 476 40,000  Level Albuquerque Center
01:48PM 33.2853 -104.4886 295° West 418 481 40,000  Level Albuquerque Center
01:50PM 33.3358 -104.6133 296° West 419 482 40,000  Level Albuquerque Center
01:51PM 33.4275 -104.7267 314° West 424 488 40,000 -540 Level Albuquerque Center
01:52PM 33.5119 -104.8261 316° Northwest 426 490 39,000 -960 Descending Albuquerque Center
01:53PM 33.5992 -104.9272 316° Northwest 434 499 38,100 -1,020 Descending Albuquerque Center
01:54PM 33.6906 -105.0344 316° Northwest 428 493 37,000 -1,020 Descending Albuquerque Center
01:55PM 33.7756 -105.1342 316° Northwest 426 490 36,100 -1,020 Descending Albuquerque Center
01:56PM 33.8692 -105.2406 317° Northwest 430 495 35,000 -960 Descending Albuquerque Center
01:57PM 33.9508 -105.3381 315° West 434 499 34,200 -900 Descending Albuquerque Center
01:58PM 34.0400 -105.4425 316° Northwest 439 505 33,200 -1,500 Descending Albuquerque Center
01:59PM 34.1256 -105.5442 315° West 434 499 31,100 -1,800 Descending Albuquerque Center
02:00PM 34.1925 -105.6550 306° West 419 482 29,600 -1,260 Descending Albuquerque Center
02:01PM 34.2258 -105.7789 288° West 398 458 28,600 -1,740 Descending Albuquerque Center
02:02PM 34.2692 -105.9244 290° West 392 451 26,100 -2,280 Descending Albuquerque Center
02:03PM 34.3053 -106.0464 290° West 385 443 24,000 -2,100 Descending Albuquerque Center
02:03PM 34.3142 -106.0794 288° West 377 434 23,400 -2,220 Descending Albuquerque Center
02:04PM 34.3319 -106.1419 289° West 362 417 22,300 -2,160 Descending Albuquerque Center
02:05PM 34.3631 -106.2444 290° West 350 403 20,400 -2,100 Descending Albuquerque Center
02:05PM 34.3722 -106.2800 287° West 358 412 19,700 -1,980 Descending Albuquerque Center
02:06PM 34.3936 -106.3550 289° West 345 397 18,400 -1,800 Descending Albuquerque Center
02:06PM 34.4031 -106.3894 288° West 349 402 17,900 -2,400 Descending Albuquerque Center
02:07PM 34.4347 -106.4550 300° West 348 400 16,000 -2,520 Descending Albuquerque Center
02:07PM 34.4617 -106.4733 331° Northwest 355 409 15,300 -1,920 Descending Albuquerque Center
02:08PM 34.5256 -106.4856 351° North 354 407 14,100 -1,980 Descending Albuquerque Center
02:08PM 34.5569 -106.4903 353° North 349 402 13,300 -1,740 Descending Albuquerque Center
02:09PM 34.6400 -106.5050 352° North 334 384 12,000 -780 Descending Albuquerque Center
02:10PM 34.7192 -106.5181 352° North 269 310 12,000  Level Albuquerque Center
02:10PM 34.7247 -106.5175 North 299 344 12,000 -840 Level Albuquerque Center
02:11PM 34.7872 -106.5289 351° North 243 280 11,200 -1,020 Descending Albuquerque Center
02:11PM 34.7947 -106.5283 North 268 308 11,000 -1,380 Descending Albuquerque Center
02:12PM 34.8539 -106.5325 357° North 235 270 9,800 -1,380 Descending Albuquerque Center
02:12PM 34.8736 -106.5300 North 249 287 9,600 -900 Descending Albuquerque Center
02:13PM 34.9133 -106.5300 360° North 208 239 8,900 -1,200 Descending Albuquerque Center
02:13PM 34.9314 -106.5253 12° North 229 264 8,400 -1,380 Descending Albuquerque Center
02:14PM 34.9594 -106.5258 359° North 184 212 7,800 -1,080 Descending Albuquerque Center
02:14PM 34.9817 -106.5236 North 204 235 7,300 -900 Descending Albuquerque Center
02:15PM 35.0086 -106.5261 356° North 155 178 6,800 -780 Descending Albuquerque Center
02:15PM 35.0256 -106.5239 North 179 206 6,500 -900 Descending Albuquerque Center
02:16PM 35.0419 -106.5458 312° West 143 165 5,900 -840 Descending Albuquerque Center
02:16PM 35.0439 -106.5572 282° West 152 175 5,700 -420 Descending Albuquerque Center
02:17PM 35.0444 -106.6147 271° West 148 170 5,300 -420 Descending Albuquerque Center
02:19PM 35.0402 -106.6092 North  Level Estimated